sensor_id;sensor_type;location;lat;lon;timestamp;temperature;humidity
77039;DHT22;65970;50.476;4.840;2022-12-24T00:02:41;10.60;99.90
77039;DHT22;65970;50.476;4.840;2022-12-24T00:07:42;10.60;99.90
77039;DHT22;65970;50.476;4.840;2022-12-24T00:12:43;10.60;99.90
77039;DHT22;65970;50.476;4.840;2022-12-24T00:17:45;10.60;99.90
77039;DHT22;65970;50.476;4.840;2022-12-24T00:22:46;10.60;99.90
77039;DHT22;65970;50.476;4.840;2022-12-24T00:27:47;10.60;99.90
77039;DHT22;65970;50.476;4.840;2022-12-24T00:32:48;10.60;99.90
77039;DHT22;65970;50.476;4.840;2022-12-24T00:37:49;10.50;99.90
77039;DHT22;65970;50.476;4.840;2022-12-24T00:42:50;10.50;99.90
77039;DHT22;65970;50.476;4.840;2022-12-24T00:47:51;10.50;99.90
77039;DHT22;65970;50.476;4.840;2022-12-24T00:52:51;10.50;99.90
77039;DHT22;65970;50.476;4.840;2022-12-24T00:57:52;10.50;99.90
77039;DHT22;65970;50.476;4.840;2022-12-24T01:02:52;10.50;99.90
77039;DHT22;65970;50.476;4.840;2022-12-24T01:07:53;10.50;99.90
77039;DHT22;65970;50.476;4.840;2022-12-24T01:12:54;10.50;99.90
77039;DHT22;65970;50.476;4.840;2022-12-24T01:17:55;10.50;99.90
77039;DHT22;65970;50.476;4.840;2022-12-24T01:22:55;10.50;99.90
77039;DHT22;65970;50.476;4.840;2022-12-24T01:27:56;10.40;99.90
77039;DHT22;65970;50.476;4.840;2022-12-24T01:32:56;10.40;99.90
77039;DHT22;65970;50.476;4.840;2022-12-24T01:37:57;10.50;99.90
77039;DHT22;65970;50.476;4.840;2022-12-24T01:42:58;10.40;99.90
77039;DHT22;65970;50.476;4.840;2022-12-24T01:47:59;10.40;99.90
77039;DHT22;65970;50.476;4.840;2022-12-24T01:53:00;10.40;99.90
77039;DHT22;65970;50.476;4.840;2022-12-24T01:58:02;10.40;99.90
77039;DHT22;65970;50.476;4.840;2022-12-24T02:03:05;10.40;99.90
77039;DHT22;65970;50.476;4.840;2022-12-24T02:08:07;10.40;99.90
77039;DHT22;65970;50.476;4.840;2022-12-24T02:13:08;10.40;99.90
77039;DHT22;65970;50.476;4.840;2022-12-24T02:35:08;10.50;99.90
77039;DHT22;65970;50.476;4.840;2022-12-24T02:40:17;10.50;99.90
77039;DHT22;65970;50.476;4.840;2022-12-24T02:45:26;10.50;99.90
77039;DHT22;65970;50.476;4.840;2022-12-24T02:50:28;10.50;99.90
77039;DHT22;65970;50.476;4.840;2022-12-24T03:07:18;10.40;99.90
77039;DHT22;65970;50.476;4.840;2022-12-24T03:11:58;10.40;99.90
77039;DHT22;65970;50.476;4.840;2022-12-24T03:17:01;10.40;99.90
77039;DHT22;65970;50.476;4.840;2022-12-24T03:22:06;10.40;99.90
77039;DHT22;65970;50.476;4.840;2022-12-24T03:27:08;10.40;99.90
77039;DHT22;65970;50.476;4.840;2022-12-24T03:32:10;10.40;99.90
77039;DHT22;65970;50.476;4.840;2022-12-24T03:37:11;10.40;99.90
77039;DHT22;65970;50.476;4.840;2022-12-24T03:42:11;10.50;99.90
77039;DHT22;65970;50.476;4.840;2022-12-24T03:47:12;10.50;99.90
77039;DHT22;65970;50.476;4.840;2022-12-24T03:52:13;10.40;99.90
77039;DHT22;65970;50.476;4.840;2022-12-24T03:57:13;10.40;99.90
77039;DHT22;65970;50.476;4.840;2022-12-24T04:02:14;10.40;99.90
77039;DHT22;65970;50.476;4.840;2022-12-24T04:07:15;10.40;99.90
77039;DHT22;65970;50.476;4.840;2022-12-24T04:12:15;10.50;99.90
77039;DHT22;65970;50.476;4.840;2022-12-24T04:17:16;10.50;99.90
77039;DHT22;65970;50.476;4.840;2022-12-24T04:22:16;10.50;99.90
77039;DHT22;65970;50.476;4.840;2022-12-24T04:27:17;10.50;99.90
77039;DHT22;65970;50.476;4.840;2022-12-24T04:32:18;10.50;99.90
77039;DHT22;65970;50.476;4.840;2022-12-24T04:37:18;10.50;99.90
77039;DHT22;65970;50.476;4.840;2022-12-24T04:42:19;10.50;99.90
77039;DHT22;65970;50.476;4.840;2022-12-24T04:47:19;10.50;99.90
77039;DHT22;65970;50.476;4.840;2022-12-24T04:52:20;10.50;99.90
77039;DHT22;65970;50.476;4.840;2022-12-24T04:57:20;10.50;99.90
77039;DHT22;65970;50.476;4.840;2022-12-24T05:02:21;10.50;99.90
77039;DHT22;65970;50.476;4.840;2022-12-24T05:07:22;10.50;99.90
77039;DHT22;65970;50.476;4.840;2022-12-24T05:12:22;10.50;99.90
77039;DHT22;65970;50.476;4.840;2022-12-24T05:17:23;10.50;99.90
77039;DHT22;65970;50.476;4.840;2022-12-24T05:22:23;10.50;99.90
77039;DHT22;65970;50.476;4.840;2022-12-24T05:27:24;10.50;99.90
77039;DHT22;65970;50.476;4.840;2022-12-24T05:32:25;10.40;99.90
77039;DHT22;65970;50.476;4.840;2022-12-24T05:37:25;10.40;99.90
77039;DHT22;65970;50.476;4.840;2022-12-24T05:42:26;10.40;99.90
77039;DHT22;65970;50.476;4.840;2022-12-24T05:47:27;10.40;99.90
77039;DHT22;65970;50.476;4.840;2022-12-24T05:52:27;10.40;99.90
77039;DHT22;65970;50.476;4.840;2022-12-24T05:57:28;10.40;99.90
77039;DHT22;65970;50.476;4.840;2022-12-24T06:02:28;10.40;99.90
77039;DHT22;65970;50.476;4.840;2022-12-24T06:07:29;10.30;99.90
77039;DHT22;65970;50.476;4.840;2022-12-24T06:12:29;10.30;99.90
77039;DHT22;65970;50.476;4.840;2022-12-24T06:17:30;10.40;99.90
77039;DHT22;65970;50.476;4.840;2022-12-24T06:22:31;10.30;99.90
77039;DHT22;65970;50.476;4.840;2022-12-24T06:27:31;10.30;99.90
77039;DHT22;65970;50.476;4.840;2022-12-24T06:32:32;10.30;99.90
77039;DHT22;65970;50.476;4.840;2022-12-24T06:37:32;10.30;99.90
77039;DHT22;65970;50.476;4.840;2022-12-24T06:42:36;10.30;99.90
77039;DHT22;65970;50.476;4.840;2022-12-24T06:47:43;10.30;99.90
77039;DHT22;65970;50.476;4.840;2022-12-24T06:52:43;10.30;99.90
77039;DHT22;65970;50.476;4.840;2022-12-24T06:57:44;10.30;99.90
77039;DHT22;65970;50.476;4.840;2022-12-24T07:02:44;10.30;99.90
77039;DHT22;65970;50.476;4.840;2022-12-24T07:07:45;10.30;99.90
77039;DHT22;65970;50.476;4.840;2022-12-24T07:12:46;10.30;99.90
77039;DHT22;65970;50.476;4.840;2022-12-24T07:17:47;10.30;99.90
77039;DHT22;65970;50.476;4.840;2022-12-24T07:22:47;10.30;99.90
77039;DHT22;65970;50.476;4.840;2022-12-24T07:27:48;10.30;99.90
77039;DHT22;65970;50.476;4.840;2022-12-24T07:32:49;10.30;99.90
77039;DHT22;65970;50.476;4.840;2022-12-24T07:37:49;10.30;99.90
77039;DHT22;65970;50.476;4.840;2022-12-24T07:42:50;10.30;99.90
77039;DHT22;65970;50.476;4.840;2022-12-24T07:47:50;10.40;99.90
77039;DHT22;65970;50.476;4.840;2022-12-24T07:52:51;10.40;99.90
77039;DHT22;65970;50.476;4.840;2022-12-24T07:57:52;10.40;99.90
77039;DHT22;65970;50.476;4.840;2022-12-24T08:02:52;10.40;99.90
77039;DHT22;65970;50.476;4.840;2022-12-24T08:07:53;10.40;99.90
77039;DHT22;65970;50.476;4.840;2022-12-24T08:12:54;10.40;99.90
77039;DHT22;65970;50.476;4.840;2022-12-24T08:17:54;10.40;99.90
77039;DHT22;65970;50.476;4.840;2022-12-24T08:22:55;10.40;99.90
77039;DHT22;65970;50.476;4.840;2022-12-24T08:27:56;10.40;99.90
77039;DHT22;65970;50.476;4.840;2022-12-24T08:32:56;10.40;99.90
77039;DHT22;65970;50.476;4.840;2022-12-24T08:37:57;10.40;99.90
77039;DHT22;65970;50.476;4.840;2022-12-24T08:42:58;10.40;99.90
77039;DHT22;65970;50.476;4.840;2022-12-24T08:48:00;10.50;99.90
77039;DHT22;65970;50.476;4.840;2022-12-24T08:53:01;10.50;99.90
77039;DHT22;65970;50.476;4.840;2022-12-24T08:58:01;10.50;99.90
77039;DHT22;65970;50.476;4.840;2022-12-24T09:03:02;10.50;99.90
77039;DHT22;65970;50.476;4.840;2022-12-24T09:08:03;10.60;99.90
77039;DHT22;65970;50.476;4.840;2022-12-24T09:13:03;10.50;99.90
77039;DHT22;65970;50.476;4.840;2022-12-24T09:18:04;10.60;99.90
77039;DHT22;65970;50.476;4.840;2022-12-24T09:23:05;10.60;99.90
77039;DHT22;65970;50.476;4.840;2022-12-24T09:28:05;10.70;99.90
77039;DHT22;65970;50.476;4.840;2022-12-24T09:33:06;10.70;99.90
77039;DHT22;65970;50.476;4.840;2022-12-24T09:38:06;10.80;99.90
77039;DHT22;65970;50.476;4.840;2022-12-24T09:43:14;10.80;99.90
77039;DHT22;65970;50.476;4.840;2022-12-24T09:48:19;10.80;99.90
77039;DHT22;65970;50.476;4.840;2022-12-24T09:53:23;10.90;99.90
77039;DHT22;65970;50.476;4.840;2022-12-24T09:58:33;10.90;99.90
77039;DHT22;65970;50.476;4.840;2022-12-24T10:03:35;11.00;99.90
77039;DHT22;65970;50.476;4.840;2022-12-24T10:14:08;11.10;99.90
77039;DHT22;65970;50.476;4.840;2022-12-24T10:19:16;11.10;99.90
77039;DHT22;65970;50.476;4.840;2022-12-24T10:24:23;11.10;99.90
77039;DHT22;65970;50.476;4.840;2022-12-24T10:29:29;11.20;99.90
77039;DHT22;65970;50.476;4.840;2022-12-24T10:34:39;11.20;99.90
77039;DHT22;65970;50.476;4.840;2022-12-24T10:39:42;11.20;99.90
77039;DHT22;65970;50.476;4.840;2022-12-24T10:44:49;11.20;99.90
77039;DHT22;65970;50.476;4.840;2022-12-24T10:50:00;11.20;99.90
77039;DHT22;65970;50.476;4.840;2022-12-24T10:55:21;11.20;99.90
77039;DHT22;65970;50.476;4.840;2022-12-24T11:00:23;11.30;99.90
77039;DHT22;65970;50.476;4.840;2022-12-24T11:05:34;11.30;99.90
77039;DHT22;65970;50.476;4.840;2022-12-24T11:10:39;11.40;99.90
77039;DHT22;65970;50.476;4.840;2022-12-24T11:15:41;11.50;99.90
77039;DHT22;65970;50.476;4.840;2022-12-24T11:20:48;11.50;99.90
77039;DHT22;65970;50.476;4.840;2022-12-24T11:25:51;11.50;99.90
77039;DHT22;65970;50.476;4.840;2022-12-24T11:35:59;11.70;99.90
77039;DHT22;65970;50.476;4.840;2022-12-24T11:41:09;11.80;99.90
77039;DHT22;65970;50.476;4.840;2022-12-24T11:46:12;11.90;99.90
77039;DHT22;65970;50.476;4.840;2022-12-24T11:51:26;12.00;99.90
77039;DHT22;65970;50.476;4.840;2022-12-24T11:56:51;12.00;99.90
77039;DHT22;65970;50.476;4.840;2022-12-24T12:01:59;12.00;99.90
77039;DHT22;65970;50.476;4.840;2022-12-24T12:07:27;12.10;99.90
77039;DHT22;65970;50.476;4.840;2022-12-24T12:12:35;12.20;99.90
77039;DHT22;65970;50.476;4.840;2022-12-24T12:18:02;12.20;99.90
77039;DHT22;65970;50.476;4.840;2022-12-24T12:23:27;12.20;99.90
77039;DHT22;65970;50.476;4.840;2022-12-24T12:38:59;12.10;99.90
77039;DHT22;65970;50.476;4.840;2022-12-24T12:44:21;12.10;99.90
77039;DHT22;65970;50.476;4.840;2022-12-24T12:54:31;12.00;99.90
77039;DHT22;65970;50.476;4.840;2022-12-24T13:15:56;11.80;99.90
77039;DHT22;65970;50.476;4.840;2022-12-24T13:21:00;11.80;99.90
77039;DHT22;65970;50.476;4.840;2022-12-24T13:26:10;11.80;99.90
77039;DHT22;65970;50.476;4.840;2022-12-24T13:36:19;11.80;99.90
77039;DHT22;65970;50.476;4.840;2022-12-24T13:46:48;11.70;99.90
77039;DHT22;65970;50.476;4.840;2022-12-24T13:51:49;11.80;99.90
77039;DHT22;65970;50.476;4.840;2022-12-24T13:56:49;11.70;99.90
77039;DHT22;65970;50.476;4.840;2022-12-24T14:01:50;11.70;99.90
77039;DHT22;65970;50.476;4.840;2022-12-24T14:06:52;11.70;99.90
77039;DHT22;65970;50.476;4.840;2022-12-24T14:17:24;11.70;99.90
77039;DHT22;65970;50.476;4.840;2022-12-24T14:22:42;11.80;99.90
77039;DHT22;65970;50.476;4.840;2022-12-24T14:27:50;11.80;99.90
77039;DHT22;65970;50.476;4.840;2022-12-24T14:32:52;11.70;99.90
77039;DHT22;65970;50.476;4.840;2022-12-24T14:38:02;11.70;99.90
77039;DHT22;65970;50.476;4.840;2022-12-24T14:43:19;11.70;99.90
77039;DHT22;65970;50.476;4.840;2022-12-24T14:59:16;11.60;99.90
77039;DHT22;65970;50.476;4.840;2022-12-24T15:04:17;11.50;99.90
77039;DHT22;65970;50.476;4.840;2022-12-24T15:14:25;11.50;99.90
77039;DHT22;65970;50.476;4.840;2022-12-24T15:19:40;11.40;99.90
77039;DHT22;65970;50.476;4.840;2022-12-24T15:24:46;11.40;99.90
77039;DHT22;65970;50.476;4.840;2022-12-24T15:29:49;11.40;99.90
77039;DHT22;65970;50.476;4.840;2022-12-24T15:34:53;11.30;99.90
77039;DHT22;65970;50.476;4.840;2022-12-24T15:40:20;11.30;99.90
77039;DHT22;65970;50.476;4.840;2022-12-24T15:45:27;11.20;99.90
77039;DHT22;65970;50.476;4.840;2022-12-24T15:50:34;11.20;99.90
77039;DHT22;65970;50.476;4.840;2022-12-24T15:55:41;11.20;99.90
77039;DHT22;65970;50.476;4.840;2022-12-24T16:00:43;11.10;99.90
77039;DHT22;65970;50.476;4.840;2022-12-24T16:06:07;11.10;99.90
77039;DHT22;65970;50.476;4.840;2022-12-24T16:11:17;11.10;99.90
77039;DHT22;65970;50.476;4.840;2022-12-24T16:16:28;11.10;99.90
77039;DHT22;65970;50.476;4.840;2022-12-24T16:21:37;11.00;99.90
77039;DHT22;65970;50.476;4.840;2022-12-24T16:26:38;11.00;99.90
77039;DHT22;65970;50.476;4.840;2022-12-24T16:31:50;10.90;99.90
77039;DHT22;65970;50.476;4.840;2022-12-24T16:36:52;10.90;99.90
77039;DHT22;65970;50.476;4.840;2022-12-24T16:41:54;11.00;99.90
77039;DHT22;65970;50.476;4.840;2022-12-24T16:46:55;10.90;99.90
77039;DHT22;65970;50.476;4.840;2022-12-24T16:51:58;10.90;99.90
77039;DHT22;65970;50.476;4.840;2022-12-24T16:56:58;10.90;99.90
77039;DHT22;65970;50.476;4.840;2022-12-24T17:01:59;10.90;99.90
77039;DHT22;65970;50.476;4.840;2022-12-24T17:06:59;10.80;99.90
77039;DHT22;65970;50.476;4.840;2022-12-24T17:12:00;10.80;99.90
77039;DHT22;65970;50.476;4.840;2022-12-24T17:17:01;10.70;99.90
77039;DHT22;65970;50.476;4.840;2022-12-24T17:22:01;10.70;99.90
77039;DHT22;65970;50.476;4.840;2022-12-24T17:27:02;10.60;99.90
